Kyokuhoumaru No.12 — JL5963 — position and weather

sailwx.info

Track history (hours):
 
Tides and Currents Weather Stations Pressure Air Temp Water Temp Dewpoint Dewpoint Depression Visibility Wind Speed Wind Dir Waves Ship Positions

Kyokuhoumaru No.12

Last reported at 2016-Aug-26 09:27 UTC. Time now 2016-Sep-01 02:00 UTC.
Position N 34°36' E 135°04'.

Length 57 m.

Type: Tanker. MMSI: 431500879.

Date/timePositionNaut miles runAvg speedWind from/ knotsBaromVisibWave heightAir tempDewpointWater temp
2016-Aug-26 09:27N 34°36' E 135°04'8 9.4
2016-Aug-26 08:33N 34°28' E 135°03'  
2016-Aug-23 03:33N 34°29' E 135°14'6 1.0
2016-Aug-22 21:30N 34°32' E 135°20'0 0.0
2016-Aug-22 20:30N 34°32' E 135°20'5 1.4
2016-Aug-22 16:33N 34°35' E 135°14'  
2016-Aug-19 14:18N 34°37' E 135°02'7 9.1
2016-Aug-19 13:33N 34°31' E 135°05'234 7.1
2016-Aug-18 04:33N 35°23' E 139°42'9 8.7
2016-Aug-18 03:33N 35°29' E 139°50'9 9.3
2016-Aug-18 02:33N 35°36' E 139°57'5 4.5
2016-Aug-18 01:28N 35°41' E 139°57'0 0.0
2016-Aug-18 00:28N 35°41' E 139°57'0 0.0
2016-Aug-17 23:28N 35°41' E 139°57'4 4.9
2016-Aug-17 22:33N 35°37' E 139°56'2 2.1
2016-Aug-17 21:32N 35°35' E 139°54'0 0.0
2016-Aug-17 20:32N 35°35' E 139°54'0 0.0
2016-Aug-17 19:32N 35°35' E 139°54'0 0.0
2016-Aug-17 18:29N 35°35' E 139°54'0 0.0
2016-Aug-17 17:32N 35°35' E 139°54'0 0.0
2016-Aug-17 16:32N 35°35' E 139°54'0 0.0
2016-Aug-17 15:32N 35°35' E 139°54'0 0.0
2016-Aug-17 14:23N 35°35' E 139°54'0 0.0
2016-Aug-17 13:29N 35°35' E 139°54'0 0.0
2016-Aug-17 12:26N 35°35' E 139°54'0 0.0
2016-Aug-17 11:26N 35°35' E 139°54'0 0.0
2016-Aug-17 10:32N 35°35' E 139°54'0 0.0
2016-Aug-17 09:32N 35°35' E 139°54'0 0.0
2016-Aug-17 08:32N 35°35' E 139°54'0 0.0
2016-Aug-17 07:29N 35°35' E 139°54'0 0.0
2016-Aug-17 06:20N 35°35' E 139°54'0 0.0
2016-Aug-17 03:29N 35°35' E 139°54'0 0.0
2016-Aug-17 02:32N 35°35' E 139°54'0 0.0
2016-Aug-17 01:23N 35°35' E 139°54'0 0.0
2016-Aug-17 00:32N 35°35' E 139°54'0 0.0
2016-Aug-16 23:32N 35°35' E 139°54'0 0.0
2016-Aug-16 22:29N 35°35' E 139°54'0 0.0
2016-Aug-16 21:26N 35°35' E 139°54'0 0.0
2016-Aug-16 20:32N 35°35' E 139°54'0 0.0
2016-Aug-16 19:32N 35°35' E 139°54'0 0.0
2016-Aug-16 18:32N 35°35' E 139°54'0 0.0
2016-Aug-16 17:29N 35°35' E 139°54'0 0.0
2016-Aug-16 16:32N 35°35' E 139°54'0 0.0
2016-Aug-16 15:26N 35°35' E 139°54'0 0.1
2016-Aug-16 14:32N 35°35' E 139°54'0 0.0
2016-Aug-16 13:32N 35°35' E 139°54'0 0.0
2016-Aug-16 12:32N 35°35' E 139°54'0 0.0
2016-Aug-16 11:32N 35°35' E 139°54'0 0.0
2016-Aug-16 10:32N 35°35' E 139°54'  
Track history (hours):
 
Tides and Currents Weather Stations Pressure Air Temp Water Temp Dewpoint Dewpoint Depression Visibility Wind Speed Wind Dir Waves Ship Positions

Kyokuhoumaru No.12

Last reported at 2016-Aug-26 09:27 UTC. Time now 2016-Sep-01 02:00 UTC.
Position N 34°36' E 135°04'.

Length 57 m.

Type: Tanker. MMSI: 431500879.

Date/timePositionNaut miles runAvg speedWind from/ knotsBaromVisibWave heightAir tempDewpointWater temp
2016-Aug-26 09:27N 34°36' E 135°04'8 9.4
2016-Aug-26 08:33N 34°28' E 135°03'  
2016-Aug-23 03:33N 34°29' E 135°14'6 1.0
2016-Aug-22 21:30N 34°32' E 135°20'0 0.0
2016-Aug-22 20:30N 34°32' E 135°20'5 1.4
2016-Aug-22 16:33N 34°35' E 135°14'  
2016-Aug-19 14:18N 34°37' E 135°02'7 9.1
2016-Aug-19 13:33N 34°31' E 135°05'234 7.1
2016-Aug-18 04:33N 35°23' E 139°42'9 8.7
2016-Aug-18 03:33N 35°29' E 139°50'9 9.3
2016-Aug-18 02:33N 35°36' E 139°57'5 4.5
2016-Aug-18 01:28N 35°41' E 139°57'0 0.0
2016-Aug-18 00:28N 35°41' E 139°57'0 0.0
2016-Aug-17 23:28N 35°41' E 139°57'4 4.9
2016-Aug-17 22:33N 35°37' E 139°56'2 2.1
2016-Aug-17 21:32N 35°35' E 139°54'0 0.0
2016-Aug-17 20:32N 35°35' E 139°54'0 0.0
2016-Aug-17 19:32N 35°35' E 139°54'0 0.0
2016-Aug-17 18:29N 35°35' E 139°54'0 0.0
2016-Aug-17 17:32N 35°35' E 139°54'0 0.0
2016-Aug-17 16:32N 35°35' E 139°54'0 0.0
2016-Aug-17 15:32N 35°35' E 139°54'0 0.0
2016-Aug-17 14:23N 35°35' E 139°54'0 0.0
2016-Aug-17 13:29N 35°35' E 139°54'0 0.0
2016-Aug-17 12:26N 35°35' E 139°54'0 0.0
2016-Aug-17 11:26N 35°35' E 139°54'0 0.0
2016-Aug-17 10:32N 35°35' E 139°54'0 0.0
2016-Aug-17 09:32N 35°35' E 139°54'0 0.0
2016-Aug-17 08:32N 35°35' E 139°54'0 0.0
2016-Aug-17 07:29N 35°35' E 139°54'0 0.0
2016-Aug-17 06:20N 35°35' E 139°54'0 0.0
2016-Aug-17 03:29N 35°35' E 139°54'0 0.0
2016-Aug-17 02:32N 35°35' E 139°54'0 0.0
2016-Aug-17 01:23N 35°35' E 139°54'0 0.0
2016-Aug-17 00:32N 35°35' E 139°54'0 0.0
2016-Aug-16 23:32N 35°35' E 139°54'0 0.0
2016-Aug-16 22:29N 35°35' E 139°54'0 0.0
2016-Aug-16 21:26N 35°35' E 139°54'0 0.0
2016-Aug-16 20:32N 35°35' E 139°54'0 0.0
2016-Aug-16 19:32N 35°35' E 139°54'0 0.0
2016-Aug-16 18:32N 35°35' E 139°54'0 0.0
2016-Aug-16 17:29N 35°35' E 139°54'0 0.0
2016-Aug-16 16:32N 35°35' E 139°54'0 0.0
2016-Aug-16 15:26N 35°35' E 139°54'0 0.1
2016-Aug-16 14:32N 35°35' E 139°54'0 0.0
2016-Aug-16 13:32N 35°35' E 139°54'0 0.0
2016-Aug-16 12:32N 35°35' E 139°54'0 0.0
2016-Aug-16 11:32N 35°35' E 139°54'0 0.0
2016-Aug-16 10:32N 35°35' E 139°54'  

Dump ship's entire track history